Time;durP1;ratioP1;P1;durP2;ratioP2;P2;SDS_P1;SDS_P2;PMS_P1;PMS_P2;Temp;Humidity;BMP_temperature;BMP_pressure;BME280_temperature;BME280_humidity;BME280_pressure;Samples;Min_cycle;Max_cycle;Signal;HPM_P1;HPM_P2
2021/01/25 00:00:16;;;;;;;6.22;5.22;;;;;;;1.38;75.19;98800.94;4907918;29;20075;-82
2021/01/25 00:02:43;;;;;;;11.13;5.85;;;;;;;1.45;75.18;98807.63;4922147;29;20044;-83
2021/01/25 00:05:11;;;;;;;10.55;5.88;;;;;;;1.45;74.24;98798.94;4916182;29;20115;-85
2021/01/25 00:07:37;;;;;;;7.57;5.38;;;;;;;1.45;74.58;98789.38;4931930;29;20050;-83
2021/01/25 00:10:05;;;;;;;10.38;5.80;;;;;;;1.45;74.37;98784.16;4915730;29;20048;-83
2021/01/25 00:12:32;;;;;;;8.43;5.93;;;;;;;1.33;74.63;98777.63;4925064;29;20052;-83
2021/01/25 00:14:59;;;;;;;9.90;5.75;;;;;;;1.39;74.82;98793.06;4926791;29;20048;-83
2021/01/25 00:17:26;;;;;;;7.85;5.97;;;;;;;1.37;74.88;98794.88;4922479;29;20112;-82
2021/01/25 00:19:53;;;;;;;8.82;5.53;;;;;;;1.42;75.44;98792.06;4923826;29;20501;-82
2021/01/25 00:22:22;;;;;;;7.78;5.20;;;;;;;1.42;74.61;98795.53;4916731;29;20048;-82
2021/01/25 00:24:51;;;;;;;8.57;5.63;;;;;;;1.42;75.06;98787.72;4910399;29;20063;-82
2021/01/25 00:27:18;;;;;;;9.73;5.75;;;;;;;1.47;75.23;98778.88;4915889;29;20411;-84
2021/01/25 00:29:45;;;;;;;7.30;5.60;;;;;;;1.50;74.98;98779.63;4894899;29;20052;-82
2021/01/25 00:32:12;;;;;;;7.63;5.43;;;;;;;1.49;75.25;98777.94;4916231;29;20067;-82
2021/01/25 00:34:39;;;;;;;7.28;5.50;;;;;;;1.47;75.67;98774.53;4912905;29;20048;-82
2021/01/25 00:37:05;;;;;;;6.72;5.03;;;;;;;1.51;75.58;98780.47;4917560;29;20052;-81
2021/01/25 00:39:32;;;;;;;6.72;5.03;;;;;;;1.51;74.94;98770.91;4916654;29;20201;-82
2021/01/25 00:41:58;;;;;;;8.60;6.00;;;;;;;1.50;75.94;98771.81;4916020;29;20067;-80
2021/01/25 00:44:25;;;;;;;8.48;5.93;;;;;;;1.50;75.49;98774.41;4916264;29;20469;-80
2021/01/25 00:46:51;;;;;;;9.75;5.88;;;;;;;1.55;75.41;98779.47;4921124;29;20075;-81
2021/01/25 00:49:18;;;;;;;9.82;6.00;;;;;;;1.59;75.53;98773.22;4920402;29;20128;-81
2021/01/25 00:51:45;;;;;;;8.57;5.32;;;;;;;1.60;75.55;98781.00;4921254;29;20055;-80
2021/01/25 00:54:12;;;;;;;10.95;6.15;;;;;;;1.54;75.79;98776.00;4927736;29;20058;-80
2021/01/25 00:56:39;;;;;;;8.50;5.40;;;;;;;1.47;75.99;98773.66;4916809;29;20466;-82
2021/01/25 00:59:06;;;;;;;8.60;5.43;;;;;;;1.39;76.94;98780.03;4931111;29;20052;-80
2021/01/25 01:01:32;;;;;;;8.07;5.13;;;;;;;1.42;77.78;98781.66;4924351;29;20063;-84
2021/01/25 01:03:59;;;;;;;7.57;5.65;;;;;;;1.37;78.79;98787.03;4927786;29;20059;-80
2021/01/25 01:06:25;;;;;;;9.75;5.90;;;;;;;1.40;79.32;98793.91;4918743;29;20059;-80
2021/01/25 01:08:51;;;;;;;9.98;5.78;;;;;;;1.35;79.15;98790.63;4920724;29;20617;-80
2021/01/25 01:11:18;;;;;;;8.25;6.05;;;;;;;1.27;80.06;98788.25;4915602;29;20099;-82
2021/01/25 01:13:44;;;;;;;9.95;6.53;;;;;;;1.23;80.54;98791.91;4924020;29;20104;-84
2021/01/25 01:16:15;;;;;;;8.60;6.15;;;;;;;1.19;80.78;98785.09;4918973;29;20092;-83
2021/01/25 01:18:41;;;;;;;8.23;6.10;;;;;;;1.16;81.33;98785.19;4939263;28;20350;-84
2021/01/25 01:21:07;;;;;;;12.57;6.05;;;;;;;1.23;82.21;98788.44;4941210;29;20050;-83
2021/01/25 01:23:35;;;;;;;9.68;6.22;;;;;;;1.20;81.98;98789.41;4935006;29;20049;-80
2021/01/25 01:26:01;;;;;;;8.32;6.00;;;;;;;1.15;82.25;98783.47;4925574;29;20063;-82
2021/01/25 01:28:28;;;;;;;8.80;6.30;;;;;;;1.11;82.29;98787.09;4923355;29;20055;-81
2021/01/25 01:30:54;;;;;;;8.77;6.20;;;;;;;1.08;82.62;98794.19;4930774;29;20052;-81
2021/01/25 01:33:21;;;;;;;9.18;6.20;;;;;;;1.08;83.01;98782.00;4920506;29;20048;-83
2021/01/25 01:35:47;;;;;;;7.70;6.13;;;;;;;1.13;83.37;98784.44;4937497;29;20032;-81
2021/01/25 01:38:13;;;;;;;10.45;5.90;;;;;;;1.16;83.15;98777.34;4918571;29;20048;-81
2021/01/25 01:40:40;;;;;;;7.10;5.75;;;;;;;1.19;83.20;98784.22;4930672;29;20482;-81
2021/01/25 01:43:06;;;;;;;9.35;6.15;;;;;;;1.16;83.50;98777.34;4917619;29;20071;-79
2021/01/25 01:45:32;;;;;;;7.85;5.65;;;;;;;1.14;84.18;98780.91;4935431;29;20064;-81
2021/01/25 01:47:59;;;;;;;8.55;5.80;;;;;;;1.12;83.86;98767.09;4920286;29;20058;-80
2021/01/25 01:50:28;;;;;;;9.70;6.47;;;;;;;1.11;84.02;98776.66;4918683;29;20060;-82
2021/01/25 01:52:58;;;;;;;7.38;4.95;;;;;;;1.19;83.38;98773.81;4925243;29;20048;-83
2021/01/25 01:55:24;;;;;;;9.65;6.85;;;;;;;1.18;83.72;98785.97;4904222;29;20075;-83
2021/01/25 01:57:53;;;;;;;9.98;6.97;;;;;;;1.21;82.93;98785.88;4929255;29;20032;-85
2021/01/25 02:00:21;;;;;;;10.05;6.60;;;;;;;1.25;83.08;98791.84;4937261;28;20072;-81
2021/01/25 02:02:47;;;;;;;10.27;6.93;;;;;;;1.23;83.49;98786.69;4913793;29;20040;-84
2021/01/25 02:05:15;;;;;;;9.30;6.35;;;;;;;1.20;83.54;98788.53;4935665;29;20063;-81
2021/01/25 02:07:45;;;;;;;8.30;6.43;;;;;;;1.18;84.07;98782.53;4930116;29;20411;-81
2021/01/25 02:10:14;;;;;;;10.95;6.75;;;;;;;1.16;83.63;98779.97;4911998;29;20052;-83
2021/01/25 02:12:41;;;;;;;11.45;6.50;;;;;;;1.23;84.20;98786.69;4906996;29;20379;-81
2021/01/25 02:15:08;;;;;;;12.30;6.82;;;;;;;1.29;82.78;98786.44;4921569;29;20052;-80
2021/01/25 02:17:34;;;;;;;11.18;6.97;;;;;;;1.24;82.32;98782.31;4917794;29;20063;-82
2021/01/25 02:20:05;;;;;;;9.65;7.15;;;;;;;1.14;83.08;98788.75;4920650;29;20532;-82
2021/01/25 02:22:35;;;;;;;10.68;7.45;;;;;;;1.10;83.62;98789.78;4913156;29;20060;-81
2021/01/25 02:25:16;;;;;;;12.40;6.97;;;;;;;1.08;83.67;98784.59;4921553;29;20050;-83
2021/01/25 02:27:44;;;;;;;11.45;7.35;;;;;;;1.05;84.03;98793.38;4917828;29;20064;-83
2021/01/25 02:30:15;;;;;;;9.60;6.80;;;;;;;1.03;84.65;98787.38;4903461;29;20075;-81
2021/01/25 02:32:47;;;;;;;11.68;7.63;;;;;;;1.17;84.68;98793.84;4899876;29;20044;-81
2021/01/25 02:35:17;;;;;;;9.57;7.43;;;;;;;1.12;84.75;98793.16;4927155;29;20063;-84
2021/01/25 02:37:46;;;;;;;9.02;7.30;;;;;;;1.04;84.86;98796.03;4921992;29;20048;-84
2021/01/25 02:40:15;;;;;;;12.77;8.68;;;;;;;0.93;85.98;98791.19;4903635;29;20048;-83
2021/01/25 02:42:43;;;;;;;12.18;8.23;;;;;;;0.86;86.17;98786.22;4925951;29;21562;-82
2021/01/25 02:45:11;;;;;;;10.98;7.88;;;;;;;0.87;86.71;98791.38;4929318;29;20505;-80
2021/01/25 02:47:38;;;;;;;11.02;7.22;;;;;;;0.86;87.19;98786.22;4897830;29;20528;-82
2021/01/25 02:50:06;;;;;;;10.60;7.60;;;;;;;0.88;87.77;98785.28;4914349;29;20148;-81
2021/01/25 02:52:36;;;;;;;12.73;8.15;;;;;;;0.90;87.63;98783.47;4914521;29;20051;-81
2021/01/25 02:55:03;;;;;;;12.63;8.27;;;;;;;0.93;87.34;98778.16;4900169;29;20044;-82
2021/01/25 02:57:32;;;;;;;12.15;8.02;;;;;;;0.98;87.35;98786.66;4913449;29;20079;-82
2021/01/25 03:00:04;;;;;;;14.57;7.68;;;;;;;1.00;87.02;98784.84;4913320;29;20196;-82
2021/01/25 03:02:32;;;;;;;12.35;8.30;;;;;;;1.05;86.89;98789.91;4920475;29;20135;-81
2021/01/25 03:05:06;;;;;;;11.65;7.88;;;;;;;1.03;86.37;98776.09;4922867;29;20054;-79
2021/01/25 03:07:32;;;;;;;10.70;7.88;;;;;;;1.02;86.18;98777.84;4912149;29;20064;-80
2021/01/25 03:10:00;;;;;;;10.55;8.18;;;;;;;1.03;86.65;98774.34;4903650;29;20048;-82
2021/01/25 03:12:28;;;;;;;10.85;8.10;;;;;;;1.03;86.25;98779.53;4903920;29;20040;-84
2021/01/25 03:14:55;;;;;;;13.38;7.88;;;;;;;1.02;85.93;98780.44;4903501;29;20219;-85
2021/01/25 03:17:24;;;;;;;14.07;8.63;;;;;;;0.94;85.40;98777.25;4928035;29;20052;-79
2021/01/25 03:19:51;;;;;;;11.25;7.97;;;;;;;0.92;86.07;98776.47;4906974;29;20056;-80
2021/01/25 03:22:18;;;;;;;11.75;8.05;;;;;;;0.95;85.52;98778.09;4923377;29;20509;-80
2021/01/25 03:24:44;;;;;;;11.35;7.95;;;;;;;0.95;85.54;98772.88;4894300;29;20056;-81
2021/01/25 03:27:10;;;;;;;14.98;8.82;;;;;;;0.94;86.14;98774.66;4913618;29;20056;-80
2021/01/25 03:29:37;;;;;;;12.80;7.97;;;;;;;0.91;86.25;98774.75;4899311;29;20059;-80
2021/01/25 03:32:03;;;;;;;12.38;7.90;;;;;;;0.92;86.11;98773.00;4897388;29;20136;-81
2021/01/25 03:34:30;;;;;;;13.15;8.40;;;;;;;0.95;86.71;98776.34;4902324;29;20135;-81
2021/01/25 03:37:00;;;;;;;12.13;7.95;;;;;;;0.99;86.20;98780.53;4915184;29;20044;-86
2021/01/25 03:39:27;;;;;;;12.32;7.75;;;;;;;0.99;85.58;98772.72;4916612;29;20544;-81
2021/01/25 03:41:53;;;;;;;9.98;7.47;;;;;;;1.00;85.86;98779.63;4913947;29;20044;-80
2021/01/25 03:44:20;;;;;;;15.27;8.20;;;;;;;1.05;86.46;98771.69;4914067;29;20075;-85
2021/01/25 03:46:47;;;;;;;13.35;8.50;;;;;;;1.09;86.21;98773.28;4897826;29;20044;-81
2021/01/25 03:49:14;;;;;;;11.65;7.68;;;;;;;1.05;85.77;98771.69;4912085;29;20083;-83
2021/01/25 03:51:41;;;;;;;12.75;7.95;;;;;;;1.05;86.18;98772.53;4914666;29;20066;-81
2021/01/25 03:54:12;;;;;;;12.23;7.90;;;;;;;1.07;85.92;98774.22;4899431;29;20390;-82
2021/01/25 03:56:44;;;;;;;10.13;7.50;;;;;;;1.04;85.98;98767.38;4895400;29;20055;-82
2021/01/25 03:59:11;;;;;;;10.63;7.50;;;;;;;1.02;85.44;98777.00;4914491;29;20044;-81
2021/01/25 04:01:37;;;;;;;9.88;6.90;;;;;;;1.00;85.29;98778.78;4916441;29;20052;-82
2021/01/25 04:04:04;;;;;;;11.00;7.68;;;;;;;0.98;85.47;98781.44;4900569;29;20070;-82
2021/01/25 04:06:31;;;;;;;10.13;7.30;;;;;;;0.95;85.54;98780.69;4918015;29;20079;-81
2021/01/25 04:08:57;;;;;;;11.68;7.03;;;;;;;0.94;86.29;98784.22;4918278;29;20429;-84
2021/01/25 04:11:24;;;;;;;11.93;8.02;;;;;;;0.93;86.30;98785.97;4921440;29;20147;-82
2021/01/25 04:13:50;;;;;;;10.88;7.07;;;;;;;0.97;86.42;98789.31;4924113;29;20131;-80
2021/01/25 04:16:17;;;;;;;11.00;7.63;;;;;;;0.99;86.02;98783.16;4920253;29;20058;-81
2021/01/25 04:18:44;;;;;;;9.98;7.55;;;;;;;0.95;86.38;98791.97;4922597;29;20052;-80
2021/01/25 04:21:10;;;;;;;11.25;7.78;;;;;;;0.94;86.45;98786.84;4924039;29;20048;-81
2021/01/25 04:23:37;;;;;;;11.77;7.95;;;;;;;0.94;86.56;98786.84;4912247;29;20079;-81
2021/01/25 04:26:07;;;;;;;;;;;;;;;0.98;86.71;98788.41;4911448;29;20052;-80
2021/01/25 04:28:43;;;;;;;11.15;7.13;;;;;;;0.97;87.10;98782.34;4907181;29;20795;-81
2021/01/25 04:31:11;;;;;;;13.07;7.70;;;;;;;0.97;87.46;98784.94;4912012;29;20165;-80
2021/01/25 04:33:39;;;;;;;13.07;7.70;;;;;;;0.91;87.62;98779.97;4923183;29;20115;-80
2021/01/25 04:36:06;;;;;;;14.52;8.05;;;;;;;0.99;88.07;98790.13;4925530;29;20067;-79
2021/01/25 04:38:33;;;;;;;11.73;7.93;;;;;;;1.00;87.49;98784.84;4913041;29;20064;-79
2021/01/25 04:41:00;;;;;;;14.90;7.43;;;;;;;1.02;87.41;98788.25;4913467;29;20048;-82
2021/01/25 04:43:29;;;;;;;12.80;7.85;;;;;;;1.05;87.67;98790.78;4927590;29;20156;-84
2021/01/25 04:45:55;;;;;;;11.65;7.88;;;;;;;1.08;87.75;98791.56;4928615;29;20054;-81
2021/01/25 04:48:26;;;;;;;13.23;7.65;;;;;;;1.06;87.63;98789.03;4903541;29;20059;-81
2021/01/25 04:50:56;;;;;;;13.82;7.88;;;;;;;1.04;87.64;98791.69;4904747;29;20052;-80
2021/01/25 04:53:23;;;;;;;12.73;8.57;;;;;;;1.04;87.68;98793.44;4917261;29;20052;-81
2021/01/25 04:55:50;;;;;;;12.25;8.43;;;;;;;1.01;87.68;98794.38;4923250;29;20044;-80
2021/01/25 04:58:18;;;;;;;10.23;8.15;;;;;;;0.96;87.84;98795.44;4925823;29;20082;-80
2021/01/25 05:00:44;;;;;;;13.18;7.95;;;;;;;0.91;87.49;98798.22;4923068;29;20055;-79
2021/01/25 05:03:11;;;;;;;13.02;8.20;;;;;;;0.90;88.08;98799.09;4914525;29;20120;-80
2021/01/25 05:05:37;;;;;;;14.57;9.13;;;;;;;0.89;88.37;98804.38;4936406;29;20077;-81
2021/01/25 05:08:04;;;;;;;13.68;9.02;;;;;;;0.92;88.59;98812.09;4936532;29;20112;-82
2021/01/25 05:10:32;;;;;;;11.25;8.27;;;;;;;0.94;88.70;98811.16;4935348;29;20031;-82
2021/01/25 05:12:58;;;;;;;14.57;8.90;;;;;;;0.98;88.51;98807.50;4928657;29;20103;-81
2021/01/25 05:15:27;;;;;;;14.85;9.45;;;;;;;0.98;88.01;98815.34;4923317;29;20052;-82
2021/01/25 05:17:55;;;;;;;13.30;9.35;;;;;;;0.92;88.22;98812.94;4927057;29;20087;-80
2021/01/25 05:20:24;;;;;;;15.80;10.13;;;;;;;0.87;88.41;98814.84;4923434;29;20053;-82
2021/01/25 05:22:50;;;;;;;15.63;10.05;;;;;;;0.80;88.53;98807.25;4918730;29;20052;-82
2021/01/25 05:25:33;;;;;;;13.93;9.18;;;;;;;0.81;89.16;98815.03;4908609;29;20062;-82
2021/01/25 05:28:00;;;;;;;14.52;9.00;;;;;;;0.80;89.05;98809.88;4904096;29;20048;-81
2021/01/25 05:30:28;;;;;;;14.95;9.13;;;;;;;0.77;88.93;98807.38;4918846;29;20060;-81
2021/01/25 05:32:57;;;;;;;12.77;9.52;;;;;;;0.75;89.19;98804.84;4914562;29;20127;-80
2021/01/25 05:35:31;;;;;;;14.77;10.20;;;;;;;0.70;89.63;98806.72;4913136;29;20067;-82
2021/01/25 05:38:08;;;;;;;15.05;10.00;;;;;;;0.68;90.11;98808.53;4915090;29;20056;-81
2021/01/25 05:40:39;;;;;;;17.92;10.20;;;;;;;0.60;90.19;98805.31;4916484;29;20075;-80
2021/01/25 05:43:13;;;;;;;18.15;10.20;;;;;;;0.62;90.19;98808.75;4918211;29;20048;-79
2021/01/25 05:45:40;;;;;;;13.98;9.52;;;;;;;0.63;89.23;98815.66;4936042;29;20053;-82
2021/01/25 05:48:11;;;;;;;17.10;9.73;;;;;;;0.63;89.80;98810.44;4934527;29;20054;-82
2021/01/25 05:50:42;;;;;;;14.35;9.75;;;;;;;0.70;89.63;98818.00;4930082;29;20048;-84
2021/01/25 05:53:11;;;;;;;15.55;9.48;;;;;;;0.76;90.12;98821.31;4919683;29;20162;-83
2021/01/25 05:55:40;;;;;;;17.65;9.68;;;;;;;0.81;89.79;98825.44;4915001;29;20055;-84
2021/01/25 05:58:07;;;;;;;13.50;9.18;;;;;;;0.81;88.96;98828.06;4919877;29;20058;-82
2021/01/25 06:00:34;;;;;;;12.80;9.55;;;;;;;0.82;88.76;98832.38;4904928;29;20066;-81
2021/01/25 06:03:02;;;;;;;17.65;9.48;;;;;;;0.69;88.35;98826.72;4905492;29;20092;-81
2021/01/25 06:05:33;;;;;;;14.07;9.57;;;;;;;0.61;88.63;98827.88;4916270;29;20048;-82
2021/01/25 06:08:30;;;;;;;14.88;9.27;;;;;;;0.61;89.28;98830.47;4920189;29;20408;-81
2021/01/25 06:11:17;;;;;;;17.42;9.93;;;;;;;0.64;89.66;98833.81;4933161;29;20550;-82
2021/01/25 06:13:58;;;;;;;13.98;9.73;;;;;;;0.64;89.36;98835.56;4904495;29;20070;-84
2021/01/25 06:16:26;;;;;;;16.27;9.77;;;;;;;0.68;89.55;98826.75;4926762;29;20111;-80
2021/01/25 06:18:59;;;;;;;15.07;9.55;;;;;;;0.80;89.18;98828.09;4922977;29;20052;-82
2021/01/25 06:21:37;;;;;;;16.63;9.60;;;;;;;0.87;89.17;98840.91;4918458;29;20095;-81
2021/01/25 06:24:06;;;;;;;15.77;9.57;;;;;;;0.89;89.07;98839.09;4920671;29;20048;-80
2021/01/25 06:26:34;;;;;;;14.93;9.02;;;;;;;0.99;88.39;98852.66;4926766;29;20052;-83
2021/01/25 06:29:05;;;;;;;14.02;9.25;;;;;;;0.99;88.54;98850.06;4902553;29;20217;-82
2021/01/25 06:31:36;;;;;;;17.80;9.25;;;;;;;0.99;88.41;98853.53;4916272;29;20068;-82
2021/01/25 06:34:04;;;;;;;19.25;9.45;;;;;;;1.00;88.92;98852.63;4900298;29;20474;-81
2021/01/25 06:36:35;;;;;;;13.15;8.73;;;;;;;0.96;88.14;98856.22;4916783;29;20120;-82
2021/01/25 06:39:04;;;;;;;13.93;9.25;;;;;;;0.96;87.92;98856.22;4918890;29;20056;-79
2021/01/25 06:41:39;;;;;;;11.82;9.10;;;;;;;1.02;88.47;98858.63;4919430;29;20056;-80
2021/01/25 06:44:06;;;;;;;14.43;9.05;;;;;;;1.04;87.73;98851.63;4914478;29;20104;-81
2021/01/25 06:46:38;;;;;;;16.10;9.60;;;;;;;0.98;87.45;98850.97;4917808;29;20059;-83
2021/01/25 06:49:09;;;;;;;15.13;9.40;;;;;;;0.96;88.59;98860.59;4916021;29;20521;-81
2021/01/25 06:51:43;;;;;;;13.57;9.10;;;;;;;1.03;88.03;98860.34;4917445;29;20100;-82
2021/01/25 06:54:11;;;;;;;15.93;9.57;;;;;;;1.05;87.88;98870.72;4901028;29;20059;-83
2021/01/25 06:56:45;;;;;;;16.50;10.43;;;;;;;1.07;88.12;98871.53;4901770;29;20052;-82
2021/01/25 06:59:12;;;;;;;15.95;10.10;;;;;;;1.02;88.02;98863.84;4920008;29;20048;-82
2021/01/25 07:01:41;;;;;;;17.40;9.63;;;;;;;1.04;87.83;98867.28;4914589;29;20067;-80
2021/01/25 07:04:13;;;;;;;13.85;9.25;;;;;;;0.98;87.44;98880.50;4919480;29;20061;-81
2021/01/25 07:06:46;;;;;;;17.20;11.18;;;;;;;0.97;87.23;98881.38;4919756;29;20063;-81
2021/01/25 07:09:12;;;;;;;13.05;8.95;;;;;;;1.04;87.56;98890.72;4920194;29;20158;-80
2021/01/25 07:11:40;;;;;;;18.27;10.43;;;;;;;1.04;87.53;98890.72;4925294;29;20517;-82
2021/01/25 07:14:07;;;;;;;13.82;9.40;;;;;;;1.07;87.75;98891.53;4926002;29;20127;-84
2021/01/25 07:16:35;;;;;;;18.63;10.00;;;;;;;1.15;88.18;98903.41;4918563;29;20052;-85
2021/01/25 07:19:03;;;;;;;17.05;8.93;;;;;;;1.18;88.33;98894.63;4932260;29;20052;-83
2021/01/25 07:21:31;;;;;;;15.73;10.05;;;;;;;1.25;87.23;98909.19;4936118;29;20044;-83
2021/01/25 07:24:01;;;;;;;16.05;9.30;;;;;;;1.20;86.98;98911.94;4934053;29;20060;-82
2021/01/25 07:26:36;;;;;;;16.85;10.07;;;;;;;1.24;87.42;98912.69;4919785;29;20056;-82
2021/01/25 07:29:09;;;;;;;16.83;9.38;;;;;;;1.26;87.70;98913.50;4919527;29;20080;-80
2021/01/25 07:31:36;;;;;;;11.95;8.48;;;;;;;1.29;87.18;98915.97;4914704;29;20399;-79
2021/01/25 07:34:02;;;;;;;14.40;9.15;;;;;;;1.35;87.32;98921.00;4904311;29;20059;-81
2021/01/25 07:36:31;;;;;;;15.30;9.10;;;;;;;1.38;87.10;98923.53;4922026;29;20135;-82
2021/01/25 07:38:57;;;;;;;13.68;8.57;;;;;;;1.35;86.40;98929.69;4918632;29;20123;-82
2021/01/25 07:41:23;;;;;;;13.30;8.82;;;;;;;1.36;86.38;98927.94;4923254;29;20058;-80
2021/01/25 07:43:50;;;;;;;16.42;9.02;;;;;;;1.37;86.62;98935.72;4926483;29;20079;-80
2021/01/25 07:46:22;;;;;;;13.73;8.35;;;;;;;1.42;86.49;98940.75;4907741;29;20438;-82
2021/01/25 07:48:50;;;;;;;15.43;9.38;;;;;;;1.47;86.35;98940.59;4921935;29;20044;-83
2021/01/25 07:51:23;;;;;;;15.48;9.73;;;;;;;1.52;86.01;98950.00;4931061;29;20068;-84
2021/01/25 07:54:13;;;;;;;19.05;9.40;;;;;;;1.50;85.59;98954.41;4929191;29;20044;-81
2021/01/25 07:56:40;;;;;;;14.57;8.90;;;;;;;1.50;85.64;98949.19;4928813;29;20076;-82
2021/01/25 07:59:16;;;;;;;14.95;9.38;;;;;;;1.55;85.50;98960.34;4926728;29;20089;-85
2021/01/25 08:01:51;;;;;;;16.08;9.65;;;;;;;1.57;85.69;98962.91;4913258;29;20347;-83
2021/01/25 08:04:23;;;;;;;12.25;8.82;;;;;;;1.54;85.03;98963.00;4924298;29;20052;-83
2021/01/25 08:06:53;;;;;;;15.20;9.07;;;;;;;1.52;84.58;98965.66;4921966;29;20063;-83
2021/01/25 08:09:21;;;;;;;13.90;9.88;;;;;;;1.44;84.71;98972.84;4912958;29;20048;-81
2021/01/25 08:11:48;;;;;;;18.45;9.40;;;;;;;1.40;85.75;98960.84;4921500;29;20067;-81
2021/01/25 08:14:37;;;;;;;28.00;16.48;;;;;;;1.42;85.86;98974.66;4919707;29;20056;-84
2021/01/25 08:17:08;;;;;;;16.52;10.32;;;;;;;1.41;86.53;98972.97;4918217;29;20056;-81
2021/01/25 08:19:51;;;;;;;14.65;9.43;;;;;;;1.44;86.87;98979.81;4912859;29;20050;-82
2021/01/25 08:22:22;;;;;;;18.85;9.95;;;;;;;1.46;87.40;98976.28;4918746;29;20052;-82
2021/01/25 08:24:57;;;;;;;16.52;10.18;;;;;;;1.50;87.79;98971.81;4915865;29;20052;-81
2021/01/25 08:27:25;;;;;;;15.63;9.90;;;;;;;1.51;87.59;98982.19;4913714;29;20170;-83
2021/01/25 08:30:13;;;;;;;15.95;11.10;;;;;;;1.48;87.47;98984.03;4915572;29;20061;-83
2021/01/25 08:32:43;;;;;;;17.92;11.63;;;;;;;1.54;87.68;98989.06;4923617;29;20473;-81
2021/01/25 08:35:12;;;;;;;19.13;11.57;;;;;;;1.54;87.89;98984.72;4924036;29;20112;-83
2021/01/25 08:37:40;;;;;;;20.58;12.00;;;;;;;1.58;88.08;98994.13;4917263;29;20075;-84
2021/01/25 08:40:22;;;;;;;24.85;12.13;;;;;;;1.59;87.79;98997.59;4909699;29;20055;-83
2021/01/25 08:42:49;;;;;;;18.58;11.15;;;;;;;1.60;88.44;98996.69;4924951;29;20497;-81
2021/01/25 08:45:25;;;;;;;19.13;12.35;;;;;;;1.62;88.00;99002.72;4912952;29;20071;-82
2021/01/25 08:48:13;;;;;;;19.95;12.52;;;;;;;1.66;88.17;99004.31;4930699;29;20046;-86
2021/01/25 08:50:41;;;;;;;21.63;12.05;;;;;;;1.75;88.21;99012.69;4916701;29;20043;-84
2021/01/25 08:53:10;;;;;;;16.73;11.43;;;;;;;1.80;87.96;99015.16;4925729;29;20052;-82
2021/01/25 08:55:52;;;;;;;22.05;13.15;;;;;;;1.81;87.76;99016.00;4924170;29;20129;-81
2021/01/25 08:58:26;;;;;;;16.67;11.63;;;;;;;1.86;87.94;99014.09;4928297;29;20066;-80
2021/01/25 09:00:54;;;;;;;20.45;12.20;;;;;;;1.97;87.48;99022.41;4926189;29;20055;-86
2021/01/25 09:03:21;;;;;;;21.05;13.50;;;;;;;2.02;86.58;99023.13;4929578;29;20078;-83
2021/01/25 09:05:51;;;;;;;19.65;13.20;;;;;;;2.05;86.34;99026.44;4927005;29;20052;-83
2021/01/25 09:08:18;;;;;;;16.27;12.20;;;;;;;2.10;86.79;99032.38;4913783;29;20057;-80
2021/01/25 09:10:44;;;;;;;31.38;19.00;;;;;;;2.12;86.74;99029.72;4909648;29;20084;-82
2021/01/25 09:13:11;;;;;;;20.30;12.93;;;;;;;2.13;86.04;99031.44;4901232;29;21640;-81
2021/01/25 09:15:39;;;;;;;21.27;12.90;;;;;;;2.17;86.34;99037.41;4906160;29;20553;-81
2021/01/25 09:18:07;;;;;;;22.58;14.45;;;;;;;2.23;88.30;99043.25;4918778;29;20064;-80
2021/01/25 09:20:34;;;;;;;20.13;13.05;;;;;;;2.23;87.44;99048.47;4923114;29;20073;-81
2021/01/25 09:23:00;;;;;;;18.48;13.52;;;;;;;2.23;87.04;99048.47;4908250;29;20076;-79
2021/01/25 09:25:27;;;;;;;28.65;19.08;;;;;;;2.26;86.71;99047.50;4921858;29;20157;-80
2021/01/25 09:27:56;;;;;;;21.38;13.90;;;;;;;2.32;85.57;99055.16;4916181;29;20055;-81
2021/01/25 09:30:25;;;;;;;19.73;13.65;;;;;;;2.35;84.82;99060.28;4899990;29;20108;-82
2021/01/25 09:32:55;;;;;;;19.92;13.27;;;;;;;2.28;85.20;99056.16;4924763;29;21447;-81
2021/01/25 09:35:22;;;;;;;19.30;13.80;;;;;;;2.28;85.82;99057.00;4905810;29;20060;-83
2021/01/25 09:37:49;;;;;;;20.85;14.32;;;;;;;2.32;85.50;99065.59;4919924;29;20063;-83
2021/01/25 09:40:19;;;;;;;21.50;14.07;;;;;;;2.36;85.46;99069.81;4924374;29;20056;-81
2021/01/25 09:42:46;;;;;;;20.85;14.82;;;;;;;2.39;85.71;99075.75;4931009;29;20052;-81
2021/01/25 09:45:16;;;;;;;20.05;14.00;;;;;;;2.40;84.28;99072.25;4936344;29;20055;-82
2021/01/25 09:47:42;;;;;;;22.03;14.63;;;;;;;2.34;84.71;99077.72;4936420;29;20043;-84
2021/01/25 09:50:13;;;;;;;22.40;15.48;;;;;;;2.42;85.05;99086.13;4939305;29;20064;-84
2021/01/25 09:52:44;;;;;;;22.90;14.85;;;;;;;2.53;85.03;99085.72;4921979;29;20049;-80
2021/01/25 09:55:12;;;;;;;20.23;14.23;;;;;;;2.66;83.53;99084.41;4932333;29;20063;-81
2021/01/25 09:57:38;;;;;;;24.70;13.82;;;;;;;2.73;83.46;99092.88;4906381;29;20143;-80
2021/01/25 10:00:07;;;;;;;23.77;13.15;;;;;;;2.78;82.17;99096.19;4926115;29;20066;-81
2021/01/25 10:02:35;;;;;;;21.65;14.73;;;;;;;2.78;82.86;99101.41;4906324;29;20452;-79
2021/01/25 10:05:03;;;;;;;20.60;14.73;;;;;;;2.79;82.75;99110.97;4919943;29;20048;-83
2021/01/25 10:07:34;;;;;;;22.35;14.75;;;;;;;2.74;82.68;99108.50;4909988;29;20059;-80
2021/01/25 10:10:04;;;;;;;20.95;13.80;;;;;;;2.73;82.67;99111.16;4902591;29;20048;-84
2021/01/25 10:12:30;;;;;;;24.50;15.35;;;;;;;2.69;82.26;99117.41;4911860;29;20044;-79
2021/01/25 10:14:57;;;;;;;22.15;14.52;;;;;;;2.67;83.37;99120.09;4913306;29;20075;-81
2021/01/25 10:17:23;;;;;;;22.88;14.90;;;;;;;2.70;83.11;99122.59;4927428;29;20048;-83
2021/01/25 10:19:51;;;;;;;19.88;13.70;;;;;;;2.71;83.12;99123.44;4931745;29;20044;-83
2021/01/25 10:22:17;;;;;;;17.05;13.20;;;;;;;2.74;82.73;99128.56;4933525;29;20055;-79
2021/01/25 10:24:43;;;;;;;20.30;14.00;;;;;;;2.70;82.22;99130.41;4935268;29;20060;-79
2021/01/25 10:27:10;;;;;;;23.67;14.77;;;;;;;2.65;82.60;99132.38;4925274;29;20070;-81
2021/01/25 10:29:36;;;;;;;20.92;13.98;;;;;;;2.66;83.02;99134.06;4911761;29;20052;-80
2021/01/25 10:32:04;;;;;;;19.73;13.55;;;;;;;2.64;83.03;99135.03;4926711;29;20108;-79
2021/01/25 10:34:31;;;;;;;22.67;13.73;;;;;;;2.57;82.69;99136.13;4912377;29;20052;-81
2021/01/25 10:36:59;;;;;;;21.73;14.38;;;;;;;2.46;83.61;99137.38;4915607;29;20051;-83
2021/01/25 10:39:28;;;;;;;29.23;15.93;;;;;;;2.53;84.83;99144.97;4924599;29;20056;-82
2021/01/25 10:41:57;;;;;;;23.63;15.17;;;;;;;2.62;84.54;99142.91;4924518;29;20528;-82
2021/01/25 10:44:24;;;;;;;25.88;15.13;;;;;;;2.69;84.36;99146.16;4926460;29;20468;-83
2021/01/25 10:46:50;;;;;;;20.92;15.52;;;;;;;2.65;84.08;99153.28;4923793;29;20066;-83
2021/01/25 10:49:17;;;;;;;23.15;16.02;;;;;;;2.58;83.83;99153.53;4926549;29;20061;-84
2021/01/25 10:51:43;;;;;;;22.30;16.15;;;;;;;2.46;84.53;99155.66;4926451;29;20048;-83
2021/01/25 10:54:10;;;;;;;24.50;16.00;;;;;;;2.54;85.96;99150.16;4924271;29;20054;-82
2021/01/25 10:56:36;;;;;;;24.38;15.75;;;;;;;2.64;85.04;99154.19;4908292;29;20048;-83
2021/01/25 10:59:05;;;;;;;23.08;16.20;;;;;;;2.68;85.28;99170.59;4929519;29;20040;-83
2021/01/25 11:01:32;;;;;;;24.40;16.85;;;;;;;2.72;84.62;99173.03;4910662;29;20142;-82
2021/01/25 11:04:00;;;;;;;22.20;15.60;;;;;;;2.73;83.26;99173.91;4901523;29;20127;-83
2021/01/25 11:06:30;;;;;;;;;;;;;;;2.71;84.02;99175.72;4924364;29;20137;-81
2021/01/25 11:08:56;;;;;;;23.27;16.63;;;;;;;2.66;84.11;99180.25;4940266;29;19981;-82
2021/01/25 11:11:22;;;;;;;27.58;16.70;;;;;;;2.69;83.97;99182.75;4911858;29;20060;-84
2021/01/25 11:13:48;;;;;;;29.35;17.23;;;;;;;2.73;83.97;99179.97;4919238;29;20834;-81
2021/01/25 11:16:15;;;;;;;29.80;18.33;;;;;;;2.73;83.84;99187.81;4908022;29;20067;-82
2021/01/25 11:18:41;;;;;;;29.17;19.13;;;;;;;2.74;84.57;99184.31;4899909;29;20048;-83
2021/01/25 11:21:08;;;;;;;25.27;17.63;;;;;;;2.86;84.57;99190.00;4918220;29;20084;-83
2021/01/25 11:23:34;;;;;;;27.13;17.52;;;;;;;3.03;83.31;99201.59;4923485;29;21260;-82
2021/01/25 11:26:01;;;;;;;28.00;17.42;;;;;;;3.06;82.97;99198.00;4919242;29;20040;-82
2021/01/25 11:28:27;;;;;;;29.90;17.33;;;;;;;3.05;82.98;99193.69;4919961;29;20056;-82
2021/01/25 11:30:54;;;;;;;28.05;17.45;;;;;;;3.14;83.39;99196.84;4916979;29;20048;-83
2021/01/25 11:33:20;;;;;;;25.10;17.45;;;;;;;3.20;82.91;99189.66;4919220;29;20040;-83
2021/01/25 11:35:47;;;;;;;26.13;16.98;;;;;;;3.15;82.69;99187.22;4922588;29;20044;-82
2021/01/25 11:38:15;;;;;;;24.00;16.63;;;;;;;3.17;82.63;99199.34;4905738;29;20055;-81